sensor_id;sensor_type;location;lat;lon;timestamp;pressure;altitude;pressure_sealevel;temperature;humidity
81822;BME280;72257;52.384;4.882;2023-08-20T00:00:27;102017.91;;;17.95;74.37
81822;BME280;72257;52.384;4.882;2023-08-20T00:02:58;102007.34;;;18.03;73.98
81822;BME280;72257;52.384;4.882;2023-08-20T00:05:24;102010.44;;;18.07;73.91
81822;BME280;72257;52.384;4.882;2023-08-20T00:07:50;102013.19;;;18.07;73.97
81822;BME280;72257;52.384;4.882;2023-08-20T00:10:15;102016.19;;;18.06;73.81
81822;BME280;72257;52.384;4.882;2023-08-20T00:12:40;102023.25;;;18.13;73.35
81822;BME280;72257;52.384;4.882;2023-08-20T00:15:06;102028.63;;;18.20;73.58
81822;BME280;72257;52.384;4.882;2023-08-20T00:17:35;102032.22;;;18.20;73.33
81822;BME280;72257;52.384;4.882;2023-08-20T00:20:01;102021.94;;;18.16;73.45
81822;BME280;72257;52.384;4.882;2023-08-20T00:22:26;102021.56;;;18.12;73.66
81822;BME280;72257;52.384;4.882;2023-08-20T00:24:53;102024.22;;;18.07;73.65
81822;BME280;72257;52.384;4.882;2023-08-20T00:27:19;102024.59;;;17.99;74.31
81822;BME280;72257;52.384;4.882;2023-08-20T00:29:44;102022.47;;;17.89;74.64
81822;BME280;72257;52.384;4.882;2023-08-20T00:32:09;102011.09;;;17.86;74.54
81822;BME280;72257;52.384;4.882;2023-08-20T00:34:35;102026.44;;;17.82;74.36
81822;BME280;72257;52.384;4.882;2023-08-20T00:37:01;102026.09;;;17.78;74.88
81822;BME280;72257;52.384;4.882;2023-08-20T00:39:26;102040.47;;;17.80;74.78
81822;BME280;72257;52.384;4.882;2023-08-20T00:41:52;102041.66;;;17.84;74.70
81822;BME280;72257;52.384;4.882;2023-08-20T00:44:17;102048.38;;;17.88;74.57
81822;BME280;72257;52.384;4.882;2023-08-20T00:46:42;102052.91;;;17.94;74.51
81822;BME280;72257;52.384;4.882;2023-08-20T00:49:08;102055.06;;;17.92;74.62
81822;BME280;72257;52.384;4.882;2023-08-20T00:51:34;102062.59;;;17.97;74.55
81822;BME280;72257;52.384;4.882;2023-08-20T00:54:01;102060.69;;;17.97;74.67
81822;BME280;72257;52.384;4.882;2023-08-20T00:56:28;102067.41;;;18.01;74.86
81822;BME280;72257;52.384;4.882;2023-08-20T00:58:54;102075.31;;;17.98;74.69
81822;BME280;72257;52.384;4.882;2023-08-20T01:01:21;102073.88;;;17.95;74.94
81822;BME280;72257;52.384;4.882;2023-08-20T01:03:46;102081.66;;;17.98;75.29
81822;BME280;72257;52.384;4.882;2023-08-20T01:09:50;102073.63;;;18.09;74.91
81822;BME280;72257;52.384;4.882;2023-08-20T01:12:16;102073.75;;;18.02;75.14
81822;BME280;72257;52.384;4.882;2023-08-20T01:14:42;102073.25;;;18.05;74.86
81822;BME280;72257;52.384;4.882;2023-08-20T01:17:07;102084.53;;;18.03;75.47
81822;BME280;72257;52.384;4.882;2023-08-20T01:19:33;102080.59;;;17.99;75.40
81822;BME280;72257;52.384;4.882;2023-08-20T01:22:15;102088.25;;;18.09;75.05
81822;BME280;72257;52.384;4.882;2023-08-20T01:25:11;102085.72;;;18.08;74.97
81822;BME280;72257;52.384;4.882;2023-08-20T01:30:32;102080.34;;;18.01;75.59
81822;BME280;72257;52.384;4.882;2023-08-20T01:32:59;102074.81;;;18.01;75.76
81822;BME280;72257;52.384;4.882;2023-08-20T01:35:25;102088.50;;;17.96;76.00
81822;BME280;72257;52.384;4.882;2023-08-20T01:37:53;102085.16;;;17.94;76.00
81822;BME280;72257;52.384;4.882;2023-08-20T01:40:19;102074.25;;;17.87;76.25
81822;BME280;72257;52.384;4.882;2023-08-20T01:42:44;102063.59;;;17.79;76.66
81822;BME280;72257;52.384;4.882;2023-08-20T01:45:09;102065.63;;;17.72;77.31
81822;BME280;72257;52.384;4.882;2023-08-20T01:47:36;102055.78;;;17.64;77.71
81822;BME280;72257;52.384;4.882;2023-08-20T01:50:01;102060.84;;;17.67;77.59
81822;BME280;72257;52.384;4.882;2023-08-20T01:52:27;102067.53;;;17.48;78.47
81822;BME280;72257;52.384;4.882;2023-08-20T01:54:54;102064.53;;;17.50;78.70
81822;BME280;72257;52.384;4.882;2023-08-20T01:57:19;102062.13;;;17.53;78.56
81822;BME280;72257;52.384;4.882;2023-08-20T01:59:45;102071.97;;;17.49;78.86
81822;BME280;72257;52.384;4.882;2023-08-20T02:02:10;102066.94;;;17.46;79.05
81822;BME280;72257;52.384;4.882;2023-08-20T02:04:35;102071.47;;;17.40;79.37
81822;BME280;72257;52.384;4.882;2023-08-20T02:07:01;102069.66;;;17.34;79.86
81822;BME280;72257;52.384;4.882;2023-08-20T02:09:26;102066.31;;;17.32;80.22
81822;BME280;72257;52.384;4.882;2023-08-20T02:11:52;102070.38;;;17.30;80.03
81822;BME280;72257;52.384;4.882;2023-08-20T02:14:17;102071.34;;;17.24;81.07
81822;BME280;72257;52.384;4.882;2023-08-20T02:16:43;102080.06;;;17.21;80.94
81822;BME280;72257;52.384;4.882;2023-08-20T02:19:08;102064.63;;;17.20;81.16
81822;BME280;72257;52.384;4.882;2023-08-20T02:21:34;102054.94;;;17.17;81.12
81822;BME280;72257;52.384;4.882;2023-08-20T02:23:59;102043.06;;;17.17;81.14
81822;BME280;72257;52.384;4.882;2023-08-20T02:26:24;102055.03;;;17.11;81.78
81822;BME280;72257;52.384;4.882;2023-08-20T02:28:50;102065.78;;;17.00;82.76
81822;BME280;72257;52.384;4.882;2023-08-20T02:31:15;102058.59;;;16.99;83.02
81822;BME280;72257;52.384;4.882;2023-08-20T02:33:40;102057.91;;;17.04;82.20
81822;BME280;72257;52.384;4.882;2023-08-20T02:36:06;102058.97;;;17.03;82.20
81822;BME280;72257;52.384;4.882;2023-08-20T02:38:31;102055.25;;;16.97;82.52
81822;BME280;72257;52.384;4.882;2023-08-20T02:40:56;102048.91;;;16.97;82.19
81822;BME280;72257;52.384;4.882;2023-08-20T02:43:22;102049.38;;;16.94;82.40
81822;BME280;72257;52.384;4.882;2023-08-20T02:45:47;102042.91;;;16.88;82.67
81822;BME280;72257;52.384;4.882;2023-08-20T02:48:14;102040.16;;;16.88;82.71
81822;BME280;72257;52.384;4.882;2023-08-20T02:50:39;102047.91;;;16.80;83.17
81822;BME280;72257;52.384;4.882;2023-08-20T02:53:05;102051.97;;;16.77;84.17
81822;BME280;72257;52.384;4.882;2023-08-20T02:55:31;102051.72;;;16.79;84.07
81822;BME280;72257;52.384;4.882;2023-08-20T02:57:57;102069.66;;;16.69;84.30
81822;BME280;72257;52.384;4.882;2023-08-20T03:00:23;102068.34;;;16.72;83.83
81822;BME280;72257;52.384;4.882;2023-08-20T03:02:48;102064.75;;;16.71;84.00
81822;BME280;72257;52.384;4.882;2023-08-20T03:05:13;102074.06;;;16.70;83.91
81822;BME280;72257;52.384;4.882;2023-08-20T03:07:39;102077.44;;;16.72;83.85
81822;BME280;72257;52.384;4.882;2023-08-20T03:10:05;102073.59;;;16.73;83.84
81822;BME280;72257;52.384;4.882;2023-08-20T03:12:31;102079.81;;;16.69;84.57
81822;BME280;72257;52.384;4.882;2023-08-20T03:14:56;102092.13;;;16.66;84.08
81822;BME280;72257;52.384;4.882;2023-08-20T03:17:21;102091.66;;;16.69;84.30
81822;BME280;72257;52.384;4.882;2023-08-20T03:19:58;102086.38;;;16.68;84.33
81822;BME280;72257;52.384;4.882;2023-08-20T03:22:25;102093.63;;;16.62;84.78
81822;BME280;72257;52.384;4.882;2023-08-20T03:24:51;102096.59;;;16.61;85.04
81822;BME280;72257;52.384;4.882;2023-08-20T03:27:17;102098.75;;;16.59;85.23
81822;BME280;72257;52.384;4.882;2023-08-20T03:29:43;102105.78;;;16.55;85.02
81822;BME280;72257;52.384;4.882;2023-08-20T03:32:09;102089.13;;;16.50;85.57
81822;BME280;72257;52.384;4.882;2023-08-20T03:34:35;102090.44;;;16.47;85.84
81822;BME280;72257;52.384;4.882;2023-08-20T03:37:00;102098.16;;;16.38;86.46
81822;BME280;72257;52.384;4.882;2023-08-20T03:39:26;102105.19;;;16.34;86.53
81822;BME280;72257;52.384;4.882;2023-08-20T03:41:52;102097.19;;;16.33;86.69
81822;BME280;72257;52.384;4.882;2023-08-20T03:44:17;102104.13;;;16.35;87.02
81822;BME280;72257;52.384;4.882;2023-08-20T03:46:43;102102.31;;;16.29;86.89
81822;BME280;72257;52.384;4.882;2023-08-20T03:49:08;102112.22;;;16.30;87.42
81822;BME280;72257;52.384;4.882;2023-08-20T03:51:33;102104.22;;;16.29;87.41
81822;BME280;72257;52.384;4.882;2023-08-20T03:53:59;102103.59;;;16.27;87.58
81822;BME280;72257;52.384;4.882;2023-08-20T03:56:24;102117.44;;;16.20;87.60
81822;BME280;72257;52.384;4.882;2023-08-20T03:58:50;102114.06;;;16.18;88.09
81822;BME280;72257;52.384;4.882;2023-08-20T04:01:15;102119.50;;;16.25;87.63
81822;BME280;72257;52.384;4.882;2023-08-20T04:03:40;102122.94;;;16.20;88.27
81822;BME280;72257;52.384;4.882;2023-08-20T04:06:05;102118.88;;;16.23;87.75
81822;BME280;72257;52.384;4.882;2023-08-20T04:08:32;102121.41;;;16.24;87.67
81822;BME280;72257;52.384;4.882;2023-08-20T04:10:57;102121.09;;;16.14;88.41
81822;BME280;72257;52.384;4.882;2023-08-20T04:13:22;102118.56;;;16.13;88.34
81822;BME280;72257;52.384;4.882;2023-08-20T04:15:48;102117.72;;;16.12;88.37
81822;BME280;72257;52.384;4.882;2023-08-20T04:18:13;102116.91;;;16.11;88.57
81822;BME280;72257;52.384;4.882;2023-08-20T04:20:38;102116.75;;;16.06;88.89
81822;BME280;72257;52.384;4.882;2023-08-20T04:23:04;102121.41;;;16.06;89.02
81822;BME280;72257;52.384;4.882;2023-08-20T04:25:29;102124.00;;;16.01;89.39
81822;BME280;72257;52.384;4.882;2023-08-20T04:27:54;102130.31;;;16.01;89.69
81822;BME280;72257;52.384;4.882;2023-08-20T04:30:20;102126.41;;;15.91;90.13
81822;BME280;72257;52.384;4.882;2023-08-20T04:32:45;102126.25;;;15.86;90.19
81822;BME280;72257;52.384;4.882;2023-08-20T04:35:10;102129.16;;;15.91;90.65
81822;BME280;72257;52.384;4.882;2023-08-20T04:37:35;102133.66;;;15.85;91.08
81822;BME280;72257;52.384;4.882;2023-08-20T04:40:01;102131.22;;;15.95;90.40
81822;BME280;72257;52.384;4.882;2023-08-20T04:42:29;102129.56;;;16.13;89.97
81822;BME280;72257;52.384;4.882;2023-08-20T04:44:54;102138.66;;;16.13;89.55
81822;BME280;72257;52.384;4.882;2023-08-20T04:47:20;102140.09;;;16.16;89.44
81822;BME280;72257;52.384;4.882;2023-08-20T04:49:45;102134.59;;;16.16;89.34
81822;BME280;72257;52.384;4.882;2023-08-20T04:52:10;102133.09;;;16.20;89.23
81822;BME280;72257;52.384;4.882;2023-08-20T04:54:36;102133.31;;;16.18;89.68
81822;BME280;72257;52.384;4.882;2023-08-20T04:57:01;102138.34;;;16.21;89.15
81822;BME280;72257;52.384;4.882;2023-08-20T04:59:27;102134.53;;;16.22;89.50
81822;BME280;72257;52.384;4.882;2023-08-20T05:01:52;102137.91;;;16.24;89.60
81822;BME280;72257;52.384;4.882;2023-08-20T05:04:18;102134.91;;;16.26;89.35
81822;BME280;72257;52.384;4.882;2023-08-20T05:06:43;102124.59;;;16.21;89.89
81822;BME280;72257;52.384;4.882;2023-08-20T05:09:08;102132.78;;;16.28;89.46
81822;BME280;72257;52.384;4.882;2023-08-20T05:11:33;102135.06;;;16.31;89.07
81822;BME280;72257;52.384;4.882;2023-08-20T05:14:00;102128.03;;;16.35;89.38
81822;BME280;72257;52.384;4.882;2023-08-20T05:16:25;102124.22;;;16.36;89.27
81822;BME280;72257;52.384;4.882;2023-08-20T05:18:50;102124.75;;;16.44;88.98
81822;BME280;72257;52.384;4.882;2023-08-20T05:21:16;102130.63;;;16.48;88.95
81822;BME280;72257;52.384;4.882;2023-08-20T05:23:41;102120.31;;;16.43;89.16
81822;BME280;72257;52.384;4.882;2023-08-20T05:26:07;102123.44;;;16.47;89.71
81822;BME280;72257;52.384;4.882;2023-08-20T05:28:32;102129.31;;;16.51;89.77
81822;BME280;72257;52.384;4.882;2023-08-20T05:30:58;102129.09;;;16.52;89.52
81822;BME280;72257;52.384;4.882;2023-08-20T05:33:24;102132.00;;;16.57;89.33
81822;BME280;72257;52.384;4.882;2023-08-20T05:35:49;102130.09;;;16.58;88.82
81822;BME280;72257;52.384;4.882;2023-08-20T05:38:15;102135.34;;;16.59;89.06
81822;BME280;72257;52.384;4.882;2023-08-20T05:40:40;102141.88;;;16.65;88.63
81822;BME280;72257;52.384;4.882;2023-08-20T05:43:06;102141.41;;;16.68;88.74
81822;BME280;72257;52.384;4.882;2023-08-20T05:45:31;102145.13;;;16.73;88.48
81822;BME280;72257;52.384;4.882;2023-08-20T05:47:57;102142.53;;;16.79;87.92
81822;BME280;72257;52.384;4.882;2023-08-20T05:50:22;102146.25;;;16.84;88.12
81822;BME280;72257;52.384;4.882;2023-08-20T05:52:48;102136.69;;;16.87;88.06
81822;BME280;72257;52.384;4.882;2023-08-20T05:55:13;102137.69;;;16.92;87.62
81822;BME280;72257;52.384;4.882;2023-08-20T05:57:39;102140.56;;;16.97;87.59
81822;BME280;72257;52.384;4.882;2023-08-20T06:00:04;102143.47;;;17.02;87.82
81822;BME280;72257;52.384;4.882;2023-08-20T06:02:30;102142.16;;;17.05;87.38
81822;BME280;72257;52.384;4.882;2023-08-20T06:04:55;102142.28;;;17.10;87.18
81822;BME280;72257;52.384;4.882;2023-08-20T06:07:21;102148.63;;;17.11;87.24
81822;BME280;72257;52.384;4.882;2023-08-20T06:09:46;102144.25;;;17.21;86.93
81822;BME280;72257;52.384;4.882;2023-08-20T06:12:12;102144.13;;;17.28;86.45
81822;BME280;72257;52.384;4.882;2023-08-20T06:14:37;102142.34;;;17.33;86.40
81822;BME280;72257;52.384;4.882;2023-08-20T06:17:02;102140.56;;;17.39;86.53
81822;BME280;72257;52.384;4.882;2023-08-20T06:19:28;102139.84;;;17.44;86.10
81822;BME280;72257;52.384;4.882;2023-08-20T06:21:54;102149.31;;;17.48;85.92
81822;BME280;72257;52.384;4.882;2023-08-20T06:24:19;102147.91;;;17.57;85.72
81822;BME280;72257;52.384;4.882;2023-08-20T06:26:45;102143.00;;;17.59;85.50
81822;BME280;72257;52.384;4.882;2023-08-20T06:29:10;102151.78;;;17.67;85.56
81822;BME280;72257;52.384;4.882;2023-08-20T06:31:35;102152.50;;;17.75;85.04
81822;BME280;72257;52.384;4.882;2023-08-20T06:34:00;102157.78;;;17.76;84.84
81822;BME280;72257;52.384;4.882;2023-08-20T06:36:26;102159.44;;;17.77;85.47
81822;BME280;72257;52.384;4.882;2023-08-20T06:38:51;102156.69;;;17.77;84.48
81822;BME280;72257;52.384;4.882;2023-08-20T06:41:17;102155.97;;;17.82;84.91
81822;BME280;72257;52.384;4.882;2023-08-20T06:43:42;102145.19;;;17.92;84.79
81822;BME280;72257;52.384;4.882;2023-08-20T06:46:08;102149.25;;;17.89;84.92
81822;BME280;72257;52.384;4.882;2023-08-20T06:48:34;102156.22;;;18.03;84.55
81822;BME280;72257;52.384;4.882;2023-08-20T06:51:08;102153.09;;;18.00;84.17
81822;BME280;72257;52.384;4.882;2023-08-20T06:53:33;102158.00;;;18.10;84.26
81822;BME280;72257;52.384;4.882;2023-08-20T06:55:59;102152.72;;;18.20;83.85
81822;BME280;72257;52.384;4.882;2023-08-20T06:58:24;102160.16;;;18.19;83.19
81822;BME280;72257;52.384;4.882;2023-08-20T07:00:49;102161.56;;;18.33;82.86
81822;BME280;72257;52.384;4.882;2023-08-20T07:03:14;102171.41;;;18.29;82.89
81822;BME280;72257;52.384;4.882;2023-08-20T07:05:40;102168.03;;;18.39;82.13
81822;BME280;72257;52.384;4.882;2023-08-20T07:08:05;102173.44;;;18.46;81.94
81822;BME280;72257;52.384;4.882;2023-08-20T07:10:30;102173.63;;;18.56;81.64
81822;BME280;72257;52.384;4.882;2023-08-20T07:12:55;102182.06;;;18.49;81.16
81822;BME280;72257;52.384;4.882;2023-08-20T07:15:24;102179.41;;;18.54;80.47
81822;BME280;72257;52.384;4.882;2023-08-20T07:17:49;102179.50;;;18.59;80.44
81822;BME280;72257;52.384;4.882;2023-08-20T07:20:14;102186.72;;;18.60;80.07
81822;BME280;72257;52.384;4.882;2023-08-20T07:22:39;102177.13;;;18.63;80.82
81822;BME280;72257;52.384;4.882;2023-08-20T07:25:05;102186.34;;;18.68;80.75
81822;BME280;72257;52.384;4.882;2023-08-20T07:27:30;102192.56;;;18.76;79.52
81822;BME280;72257;52.384;4.882;2023-08-20T07:29:56;102190.88;;;18.86;79.10
81822;BME280;72257;52.384;4.882;2023-08-20T07:32:21;102189.63;;;18.94;79.56
81822;BME280;72257;52.384;4.882;2023-08-20T07:34:46;102197.66;;;18.95;78.94
81822;BME280;72257;52.384;4.882;2023-08-20T07:37:12;102203.41;;;19.06;78.51
81822;BME280;72257;52.384;4.882;2023-08-20T07:39:37;102195.22;;;19.11;78.15
81822;BME280;72257;52.384;4.882;2023-08-20T07:42:03;102211.34;;;19.02;78.05
81822;BME280;72257;52.384;4.882;2023-08-20T07:44:28;102214.16;;;19.19;77.88
81822;BME280;72257;52.384;4.882;2023-08-20T07:46:56;102212.66;;;19.28;77.28
81822;BME280;72257;52.384;4.882;2023-08-20T07:49:21;102201.94;;;19.31;77.79
81822;BME280;72257;52.384;4.882;2023-08-20T07:51:46;102217.06;;;19.12;77.87
81822;BME280;72257;52.384;4.882;2023-08-20T07:54:12;102212.56;;;19.23;77.83
81822;BME280;72257;52.384;4.882;2023-08-20T07:56:37;102216.59;;;19.32;77.54
81822;BME280;72257;52.384;4.882;2023-08-20T07:59:03;102227.09;;;19.47;76.67
81822;BME280;72257;52.384;4.882;2023-08-20T08:01:28;102221.97;;;19.39;76.52
81822;BME280;72257;52.384;4.882;2023-08-20T08:03:53;102218.44;;;19.55;76.83
81822;BME280;72257;52.384;4.882;2023-08-20T08:06:19;102217.34;;;19.56;75.19
81822;BME280;72257;52.384;4.882;2023-08-20T08:08:45;102216.38;;;19.50;75.81
81822;BME280;72257;52.384;4.882;2023-08-20T08:11:10;102216.38;;;19.50;75.56
81822;BME280;72257;52.384;4.882;2023-08-20T08:13:35;102220.94;;;19.56;74.96
81822;BME280;72257;52.384;4.882;2023-08-20T08:16:01;102223.59;;;19.51;74.93
81822;BME280;72257;52.384;4.882;2023-08-20T08:18:26;102238.03;;;19.70;73.82
81822;BME280;72257;52.384;4.882;2023-08-20T08:20:51;102221.88;;;19.62;74.14
81822;BME280;72257;52.384;4.882;2023-08-20T08:23:17;102229.25;;;19.73;73.83
81822;BME280;72257;52.384;4.882;2023-08-20T08:25:42;102228.59;;;19.83;74.12
81822;BME280;72257;52.384;4.882;2023-08-20T08:28:07;102224.56;;;19.74;74.36
81822;BME280;72257;52.384;4.882;2023-08-20T08:30:33;102229.00;;;19.75;74.25
81822;BME280;72257;52.384;4.882;2023-08-20T08:32:58;102229.94;;;19.80;73.68
81822;BME280;72257;52.384;4.882;2023-08-20T08:35:24;102233.88;;;20.01;73.05
81822;BME280;72257;52.384;4.882;2023-08-20T08:37:49;102233.88;;;20.01;71.86
81822;BME280;72257;52.384;4.882;2023-08-20T08:40:14;102230.25;;;20.17;71.84
81822;BME280;72257;52.384;4.882;2023-08-20T08:42:40;102233.31;;;20.38;70.31
81822;BME280;72257;52.384;4.882;2023-08-20T08:45:08;102240.16;;;20.69;68.92
81822;BME280;72257;52.384;4.882;2023-08-20T08:47:34;102240.53;;;20.77;68.95
81822;BME280;72257;52.384;4.882;2023-08-20T08:49:59;102243.66;;;20.81;69.94
81822;BME280;72257;52.384;4.882;2023-08-20T08:52:25;102259.34;;;20.75;70.39
81822;BME280;72257;52.384;4.882;2023-08-20T08:54:51;102240.34;;;20.62;71.28
81822;BME280;72257;52.384;4.882;2023-08-20T08:57:17;102243.03;;;20.57;71.03
81822;BME280;72257;52.384;4.882;2023-08-20T08:59:42;102247.66;;;20.51;69.77
81822;BME280;72257;52.384;4.882;2023-08-20T09:02:09;102251.44;;;20.45;69.59
81822;BME280;72257;52.384;4.882;2023-08-20T09:04:38;102260.16;;;20.37;69.92
81822;BME280;72257;52.384;4.882;2023-08-20T09:07:04;102251.34;;;20.57;69.51
81822;BME280;72257;52.384;4.882;2023-08-20T09:09:29;102259.91;;;20.55;69.14
81822;BME280;72257;52.384;4.882;2023-08-20T09:11:55;102248.56;;;20.57;69.76
81822;BME280;72257;52.384;4.882;2023-08-20T09:14:30;102243.94;;;20.63;69.55
81822;BME280;72257;52.384;4.882;2023-08-20T09:16:57;102249.88;;;20.71;66.37
81822;BME280;72257;52.384;4.882;2023-08-20T09:19:23;102257.84;;;20.84;67.01
81822;BME280;72257;52.384;4.882;2023-08-20T09:21:48;102263.63;;;20.83;66.77
81822;BME280;72257;52.384;4.882;2023-08-20T09:24:14;102254.53;;;20.87;67.78
81822;BME280;72257;52.384;4.882;2023-08-20T09:26:45;102263.63;;;20.83;67.17
81822;BME280;72257;52.384;4.882;2023-08-20T09:29:10;102259.19;;;20.82;66.50
81822;BME280;72257;52.384;4.882;2023-08-20T09:31:37;102248.94;;;20.82;66.15
81822;BME280;72257;52.384;4.882;2023-08-20T09:34:03;102252.19;;;20.79;64.95
81822;BME280;72257;52.384;4.882;2023-08-20T09:36:31;102256.66;;;21.02;65.76
81822;BME280;72257;52.384;4.882;2023-08-20T09:38:56;102257.69;;;20.96;67.29
81822;BME280;72257;52.384;4.882;2023-08-20T09:41:23;102259.88;;;21.16;66.35
81822;BME280;72257;52.384;4.882;2023-08-20T09:43:55;102268.34;;;21.26;65.90
81822;BME280;72257;52.384;4.882;2023-08-20T09:46:23;102255.06;;;21.06;65.81
81822;BME280;72257;52.384;4.882;2023-08-20T09:48:51;102266.66;;;21.03;66.16
81822;BME280;72257;52.384;4.882;2023-08-20T09:51:19;102263.94;;;20.86;66.99
81822;BME280;72257;52.384;4.882;2023-08-20T09:53:55;102264.91;;;20.97;66.60
81822;BME280;72257;52.384;4.882;2023-08-20T09:56:27;102270.00;;;21.05;65.87
81822;BME280;72257;52.384;4.882;2023-08-20T09:58:54;102261.63;;;21.00;66.27
81822;BME280;72257;52.384;4.882;2023-08-20T10:01:20;102257.91;;;20.89;66.10
81822;BME280;72257;52.384;4.882;2023-08-20T10:03:46;102264.97;;;21.02;65.57
81822;BME280;72257;52.384;4.882;2023-08-20T10:06:11;102258.78;;;21.17;65.76
81822;BME280;72257;52.384;4.882;2023-08-20T10:08:37;102262.22;;;21.24;65.95
81822;BME280;72257;52.384;4.882;2023-08-20T10:11:03;102269.56;;;21.35;66.08
81822;BME280;72257;52.384;4.882;2023-08-20T10:13:28;102259.88;;;21.16;64.02
81822;BME280;72257;52.384;4.882;2023-08-20T10:15:54;102262.00;;;21.09;64.32
81822;BME280;72257;52.384;4.882;2023-08-20T10:18:21;102264.84;;;21.14;65.34
81822;BME280;72257;52.384;4.882;2023-08-20T10:20:50;102262.72;;;21.21;61.67
81822;BME280;72257;52.384;4.882;2023-08-20T10:23:20;102265.41;;;21.16;61.62
81822;BME280;72257;52.384;4.882;2023-08-20T10:25:45;102265.94;;;21.35;63.04
81822;BME280;72257;52.384;4.882;2023-08-20T10:28:14;102262.84;;;21.31;63.09
81822;BME280;72257;52.384;4.882;2023-08-20T10:31:08;102271.53;;;21.18;63.16
81822;BME280;72257;52.384;4.882;2023-08-20T10:33:36;102272.63;;;21.17;62.13
81822;BME280;72257;52.384;4.882;2023-08-20T10:36:15;102261.88;;;21.42;61.95
81822;BME280;72257;52.384;4.882;2023-08-20T10:38:40;102273.53;;;21.44;62.93
81822;BME280;72257;52.384;4.882;2023-08-20T10:41:07;102267.78;;;21.51;63.02
81822;BME280;72257;52.384;4.882;2023-08-20T10:43:38;102273.47;;;21.39;61.65
81822;BME280;72257;52.384;4.882;2023-08-20T10:48:39;102263.53;;;21.43;63.61
81822;BME280;72257;52.384;4.882;2023-08-20T10:51:15;102256.91;;;21.44;63.10
81822;BME280;72257;52.384;4.882;2023-08-20T10:53:48;102252.59;;;21.59;61.55
81822;BME280;72257;52.384;4.882;2023-08-20T10:56:17;102255.25;;;21.75;62.33
81822;BME280;72257;52.384;4.882;2023-08-20T10:58:49;102251.81;;;21.95;61.93
81822;BME280;72257;52.384;4.882;2023-08-20T11:01:21;102266.31;;;21.70;61.40
81822;BME280;72257;52.384;4.882;2023-08-20T11:03:49;102256.63;;;21.73;61.78
81822;BME280;72257;52.384;4.882;2023-08-20T11:06:15;102257.47;;;21.73;62.92
81822;BME280;72257;52.384;4.882;2023-08-20T11:08:41;102245.22;;;21.69;62.77
81822;BME280;72257;52.384;4.882;2023-08-20T11:11:07;102261.38;;;21.77;61.80
81822;BME280;72257;52.384;4.882;2023-08-20T11:13:33;102256.25;;;21.64;61.66
81822;BME280;72257;52.384;4.882;2023-08-20T11:16:01;102260.59;;;21.82;61.57
81822;BME280;72257;52.384;4.882;2023-08-20T11:18:27;102266.91;;;22.04;60.53
81822;BME280;72257;52.384;4.882;2023-08-20T11:20:54;102260.84;;;21.80;61.58
81822;BME280;72257;52.384;4.882;2023-08-20T11:23:20;102263.75;;;21.64;61.86
81822;BME280;72257;52.384;4.882;2023-08-20T11:25:45;102260.75;;;21.70;62.62
81822;BME280;72257;52.384;4.882;2023-08-20T11:28:25;102268.66;;;21.83;62.51
81822;BME280;72257;52.384;4.882;2023-08-20T11:30:51;102267.50;;;21.79;61.80
81822;BME280;72257;52.384;4.882;2023-08-20T11:33:18;102261.50;;;21.93;61.70
81822;BME280;72257;52.384;4.882;2023-08-20T11:35:43;102265.16;;;21.98;61.93
81822;BME280;72257;52.384;4.882;2023-08-20T11:38:09;102265.38;;;21.92;61.00
81822;BME280;72257;52.384;4.882;2023-08-20T11:40:35;102271.34;;;22.05;60.19
81822;BME280;72257;52.384;4.882;2023-08-20T11:43:01;102271.97;;;22.12;60.27
81822;BME280;72257;52.384;4.882;2023-08-20T11:45:26;102266.28;;;22.29;60.37
81822;BME280;72257;52.384;4.882;2023-08-20T11:47:56;102269.34;;;22.33;60.31
81822;BME280;72257;52.384;4.882;2023-08-20T11:50:22;102261.41;;;22.51;58.19
81822;BME280;72257;52.384;4.882;2023-08-20T11:52:47;102262.78;;;22.49;57.50
81822;BME280;72257;52.384;4.882;2023-08-20T11:55:12;102257.56;;;22.58;56.25
81822;BME280;72257;52.384;4.882;2023-08-20T11:57:38;102254.81;;;22.63;55.68
81822;BME280;72257;52.384;4.882;2023-08-20T12:00:04;102258.53;;;22.36;57.47
81822;BME280;72257;52.384;4.882;2023-08-20T12:02:34;102249.34;;;22.31;57.84
81822;BME280;72257;52.384;4.882;2023-08-20T12:05:00;102254.31;;;22.71;57.75
81822;BME280;72257;52.384;4.882;2023-08-20T12:07:26;102257.53;;;22.52;58.00
81822;BME280;72257;52.384;4.882;2023-08-20T12:09:53;102268.09;;;22.56;57.42
81822;BME280;72257;52.384;4.882;2023-08-20T12:12:19;102260.00;;;22.49;57.56
81822;BME280;72257;52.384;4.882;2023-08-20T12:14:45;102258.34;;;22.95;54.97
81822;BME280;72257;52.384;4.882;2023-08-20T12:17:10;102282.81;;;22.56;54.60
81822;BME280;72257;52.384;4.882;2023-08-20T12:19:36;102273.31;;;22.89;54.20
81822;BME280;72257;52.384;4.882;2023-08-20T12:22:01;102278.06;;;22.94;53.05
81822;BME280;72257;52.384;4.882;2023-08-20T12:24:27;102281.94;;;22.93;54.14
81822;BME280;72257;52.384;4.882;2023-08-20T12:26:52;102287.06;;;23.21;53.57
81822;BME280;72257;52.384;4.882;2023-08-20T12:29:18;102291.53;;;23.32;53.27
81822;BME280;72257;52.384;4.882;2023-08-20T12:31:43;102286.78;;;23.18;53.81
81822;BME280;72257;52.384;4.882;2023-08-20T12:34:09;102287.78;;;22.96;52.99
81822;BME280;72257;52.384;4.882;2023-08-20T12:36:34;102301.47;;;23.08;52.13
81822;BME280;72257;52.384;4.882;2023-08-20T12:39:00;102280.31;;;23.02;51.75
81822;BME280;72257;52.384;4.882;2023-08-20T12:41:25;102281.78;;;23.20;50.75
81822;BME280;72257;52.384;4.882;2023-08-20T12:43:50;102284.16;;;23.68;49.17
81822;BME280;72257;52.384;4.882;2023-08-20T12:46:18;102299.47;;;23.81;48.64
81822;BME280;72257;52.384;4.882;2023-08-20T12:48:43;102276.66;;;23.89;49.61
81822;BME280;72257;52.384;4.882;2023-08-20T12:51:09;102278.19;;;24.97;47.38
81822;BME280;72257;52.384;4.882;2023-08-20T12:53:38;102292.56;;;25.74;44.52